sensor_id;sensor_type;location;lat;lon;timestamp;temperature;humidity
20158;DHT22;10239;56.820;24.416;2023-02-15T00:02:03;2.50;99.90
20158;DHT22;10239;56.820;24.416;2023-02-15T00:04:30;2.40;99.90
20158;DHT22;10239;56.820;24.416;2023-02-15T00:07:18;2.60;99.90
20158;DHT22;10239;56.820;24.416;2023-02-15T00:09:47;2.60;99.90
20158;DHT22;10239;56.820;24.416;2023-02-15T00:12:15;2.60;99.90
20158;DHT22;10239;56.820;24.416;2023-02-15T00:14:43;2.30;99.90
20158;DHT22;10239;56.820;24.416;2023-02-15T00:17:10;2.30;99.90
20158;DHT22;10239;56.820;24.416;2023-02-15T00:19:38;2.50;99.90
20158;DHT22;10239;56.820;24.416;2023-02-15T00:22:07;2.60;99.90
20158;DHT22;10239;56.820;24.416;2023-02-15T00:24:35;2.60;99.90
20158;DHT22;10239;56.820;24.416;2023-02-15T00:27:03;2.70;99.90
20158;DHT22;10239;56.820;24.416;2023-02-15T00:29:31;2.80;99.90
20158;DHT22;10239;56.820;24.416;2023-02-15T00:31:58;2.70;99.90
20158;DHT22;10239;56.820;24.416;2023-02-15T00:34:27;2.70;99.90
20158;DHT22;10239;56.820;24.416;2023-02-15T00:36:56;2.70;99.90
20158;DHT22;10239;56.820;24.416;2023-02-15T00:39:24;2.70;99.90
20158;DHT22;10239;56.820;24.416;2023-02-15T00:41:51;2.80;99.90
20158;DHT22;10239;56.820;24.416;2023-02-15T00:44:19;2.70;99.90
20158;DHT22;10239;56.820;24.416;2023-02-15T00:46:47;2.70;99.90
20158;DHT22;10239;56.820;24.416;2023-02-15T00:49:14;2.60;99.90
20158;DHT22;10239;56.820;24.416;2023-02-15T00:51:42;2.70;99.90
20158;DHT22;10239;56.820;24.416;2023-02-15T00:54:10;2.70;99.90
20158;DHT22;10239;56.820;24.416;2023-02-15T00:56:38;2.80;99.90
20158;DHT22;10239;56.820;24.416;2023-02-15T00:59:05;2.80;99.90
20158;DHT22;10239;56.820;24.416;2023-02-15T01:01:33;2.80;99.90
20158;DHT22;10239;56.820;24.416;2023-02-15T01:04:01;2.80;99.90
20158;DHT22;10239;56.820;24.416;2023-02-15T01:06:29;2.70;99.90
20158;DHT22;10239;56.820;24.416;2023-02-15T01:08:57;2.70;99.90
20158;DHT22;10239;56.820;24.416;2023-02-15T01:11:24;2.80;99.90
20158;DHT22;10239;56.820;24.416;2023-02-15T01:13:57;2.80;99.90
20158;DHT22;10239;56.820;24.416;2023-02-15T01:16:27;2.90;99.90
20158;DHT22;10239;56.820;24.416;2023-02-15T01:18:55;2.90;99.90
20158;DHT22;10239;56.820;24.416;2023-02-15T01:21:24;2.90;99.90
20158;DHT22;10239;56.820;24.416;2023-02-15T01:23:53;2.90;99.90
20158;DHT22;10239;56.820;24.416;2023-02-15T01:26:20;3.00;99.90
20158;DHT22;10239;56.820;24.416;2023-02-15T01:28:48;3.00;99.90
20158;DHT22;10239;56.820;24.416;2023-02-15T01:31:18;3.00;99.90
20158;DHT22;10239;56.820;24.416;2023-02-15T01:33:47;2.90;99.90
20158;DHT22;10239;56.820;24.416;2023-02-15T01:36:15;2.80;99.90
20158;DHT22;10239;56.820;24.416;2023-02-15T01:38:45;2.80;99.90
20158;DHT22;10239;56.820;24.416;2023-02-15T01:41:13;2.50;99.90
20158;DHT22;10239;56.820;24.416;2023-02-15T01:43:59;2.30;99.90
20158;DHT22;10239;56.820;24.416;2023-02-15T01:46:38;2.10;99.90
20158;DHT22;10239;56.820;24.416;2023-02-15T01:49:13;2.10;99.90
20158;DHT22;10239;56.820;24.416;2023-02-15T01:51:43;2.20;99.90
20158;DHT22;10239;56.820;24.416;2023-02-15T01:54:22;2.20;99.90
20158;DHT22;10239;56.820;24.416;2023-02-15T01:56:52;2.00;99.90
20158;DHT22;10239;56.820;24.416;2023-02-15T01:59:23;1.80;99.90
20158;DHT22;10239;56.820;24.416;2023-02-15T02:01:55;1.80;99.90
20158;DHT22;10239;56.820;24.416;2023-02-15T02:06:57;1.70;99.90
20158;DHT22;10239;56.820;24.416;2023-02-15T02:09:27;1.70;99.90
20158;DHT22;10239;56.820;24.416;2023-02-15T02:11:55;1.70;99.90
20158;DHT22;10239;56.820;24.416;2023-02-15T02:14:23;1.80;99.90
20158;DHT22;10239;56.820;24.416;2023-02-15T02:39:52;1.50;99.90
20158;DHT22;10239;56.820;24.416;2023-02-15T02:42:38;1.60;99.90
20158;DHT22;10239;56.820;24.416;2023-02-15T02:45:28;1.60;99.90
20158;DHT22;10239;56.820;24.416;2023-02-15T02:48:04;1.60;99.90
20158;DHT22;10239;56.820;24.416;2023-02-15T02:50:33;1.80;99.90
20158;DHT22;10239;56.820;24.416;2023-02-15T02:53:00;1.90;99.90
20158;DHT22;10239;56.820;24.416;2023-02-15T02:55:32;2.10;99.90
20158;DHT22;10239;56.820;24.416;2023-02-15T03:00:54;2.40;99.90
20158;DHT22;10239;56.820;24.416;2023-02-15T03:03:36;2.60;99.90
20158;DHT22;10239;56.820;24.416;2023-02-15T03:06:10;2.60;99.90
20158;DHT22;10239;56.820;24.416;2023-02-15T03:08:47;2.60;99.90
20158;DHT22;10239;56.820;24.416;2023-02-15T03:11:16;2.60;99.90
20158;DHT22;10239;56.820;24.416;2023-02-15T03:13:45;2.60;99.90
20158;DHT22;10239;56.820;24.416;2023-02-15T03:16:16;2.70;99.90
20158;DHT22;10239;56.820;24.416;2023-02-15T03:19:32;2.70;99.90
20158;DHT22;10239;56.820;24.416;2023-02-15T03:22:13;2.80;99.90
20158;DHT22;10239;56.820;24.416;2023-02-15T03:24:49;2.80;99.90
20158;DHT22;10239;56.820;24.416;2023-02-15T03:27:25;2.90;99.90
20158;DHT22;10239;56.820;24.416;2023-02-15T03:29:57;2.90;99.90
20158;DHT22;10239;56.820;24.416;2023-02-15T03:32:28;2.90;99.90
20158;DHT22;10239;56.820;24.416;2023-02-15T03:34:56;2.90;99.90
20158;DHT22;10239;56.820;24.416;2023-02-15T03:45:55;2.50;99.90
20158;DHT22;10239;56.820;24.416;2023-02-15T03:48:35;2.70;99.90
20158;DHT22;10239;56.820;24.416;2023-02-15T03:51:08;2.50;99.90
20158;DHT22;10239;56.820;24.416;2023-02-15T03:53:57;2.20;99.90
20158;DHT22;10239;56.820;24.416;2023-02-15T03:56:26;2.40;99.90
20158;DHT22;10239;56.820;24.416;2023-02-15T03:58:53;2.50;99.90
20158;DHT22;10239;56.820;24.416;2023-02-15T04:01:47;2.60;99.90
20158;DHT22;10239;56.820;24.416;2023-02-15T04:04:37;2.60;99.90
20158;DHT22;10239;56.820;24.416;2023-02-15T04:07:07;2.60;99.90
20158;DHT22;10239;56.820;24.416;2023-02-15T04:09:35;2.70;99.90
20158;DHT22;10239;56.820;24.416;2023-02-15T04:12:21;2.60;99.90
20158;DHT22;10239;56.820;24.416;2023-02-15T04:14:49;2.50;99.90
20158;DHT22;10239;56.820;24.416;2023-02-15T04:17:37;2.50;99.90
20158;DHT22;10239;56.820;24.416;2023-02-15T04:20:05;2.40;99.90
20158;DHT22;10239;56.820;24.416;2023-02-15T04:22:51;2.20;99.90
20158;DHT22;10239;56.820;24.416;2023-02-15T04:25:37;2.30;99.90
20158;DHT22;10239;56.820;24.416;2023-02-15T04:28:05;2.10;99.90
20158;DHT22;10239;56.820;24.416;2023-02-15T04:30:34;1.90;99.90
20158;DHT22;10239;56.820;24.416;2023-02-15T04:33:02;1.90;99.90
20158;DHT22;10239;56.820;24.416;2023-02-15T04:35:30;2.10;99.90
20158;DHT22;10239;56.820;24.416;2023-02-15T04:37:58;2.20;99.90
20158;DHT22;10239;56.820;24.416;2023-02-15T04:40:26;2.00;99.90
20158;DHT22;10239;56.820;24.416;2023-02-15T04:42:53;2.00;99.90
20158;DHT22;10239;56.820;24.416;2023-02-15T04:45:21;2.00;99.90
20158;DHT22;10239;56.820;24.416;2023-02-15T04:47:48;1.80;99.90
20158;DHT22;10239;56.820;24.416;2023-02-15T04:50:16;2.10;99.90
20158;DHT22;10239;56.820;24.416;2023-02-15T04:52:44;2.20;99.90
20158;DHT22;10239;56.820;24.416;2023-02-15T04:55:11;2.20;99.90
20158;DHT22;10239;56.820;24.416;2023-02-15T04:57:38;2.30;99.90
20158;DHT22;10239;56.820;24.416;2023-02-15T05:00:06;2.30;99.90
20158;DHT22;10239;56.820;24.416;2023-02-15T05:02:36;2.20;99.90
20158;DHT22;10239;56.820;24.416;2023-02-15T05:05:04;2.10;99.90
20158;DHT22;10239;56.820;24.416;2023-02-15T05:07:31;2.00;99.90
20158;DHT22;10239;56.820;24.416;2023-02-15T05:09:59;1.90;99.90
20158;DHT22;10239;56.820;24.416;2023-02-15T05:12:26;2.00;99.90
20158;DHT22;10239;56.820;24.416;2023-02-15T05:14:54;2.00;99.90
20158;DHT22;10239;56.820;24.416;2023-02-15T05:17:21;1.90;99.90
20158;DHT22;10239;56.820;24.416;2023-02-15T05:19:49;1.80;99.90
20158;DHT22;10239;56.820;24.416;2023-02-15T05:22:16;1.60;99.90
20158;DHT22;10239;56.820;24.416;2023-02-15T05:24:44;1.60;99.90
20158;DHT22;10239;56.820;24.416;2023-02-15T05:27:29;1.60;99.90
20158;DHT22;10239;56.820;24.416;2023-02-15T05:30:15;1.50;99.90
20158;DHT22;10239;56.820;24.416;2023-02-15T05:32:43;1.50;99.90
20158;DHT22;10239;56.820;24.416;2023-02-15T05:35:14;1.60;99.90
20158;DHT22;10239;56.820;24.416;2023-02-15T05:37:42;1.60;99.90
20158;DHT22;10239;56.820;24.416;2023-02-15T05:40:11;1.50;99.90
20158;DHT22;10239;56.820;24.416;2023-02-15T05:42:38;1.40;99.90
20158;DHT22;10239;56.820;24.416;2023-02-15T05:45:06;1.30;99.90
20158;DHT22;10239;56.820;24.416;2023-02-15T05:47:33;1.40;99.90
20158;DHT22;10239;56.820;24.416;2023-02-15T05:50:07;1.50;99.90
20158;DHT22;10239;56.820;24.416;2023-02-15T05:52:35;1.50;99.90
20158;DHT22;10239;56.820;24.416;2023-02-15T05:55:04;1.20;99.90
20158;DHT22;10239;56.820;24.416;2023-02-15T05:57:32;1.10;99.90
20158;DHT22;10239;56.820;24.416;2023-02-15T05:59:59;1.20;99.90
20158;DHT22;10239;56.820;24.416;2023-02-15T06:02:37;1.30;99.90
20158;DHT22;10239;56.820;24.416;2023-02-15T06:05:08;1.40;99.90
20158;DHT22;10239;56.820;24.416;2023-02-15T06:07:36;1.30;99.90
20158;DHT22;10239;56.820;24.416;2023-02-15T06:10:04;1.30;99.90
20158;DHT22;10239;56.820;24.416;2023-02-15T06:12:32;1.40;99.90
20158;DHT22;10239;56.820;24.416;2023-02-15T06:14:59;1.40;99.90
20158;DHT22;10239;56.820;24.416;2023-02-15T06:17:27;1.50;99.90
20158;DHT22;10239;56.820;24.416;2023-02-15T06:19:54;1.50;99.90
20158;DHT22;10239;56.820;24.416;2023-02-15T06:22:22;1.50;99.90
20158;DHT22;10239;56.820;24.416;2023-02-15T06:24:50;1.60;99.90
20158;DHT22;10239;56.820;24.416;2023-02-15T06:27:17;1.90;99.90
20158;DHT22;10239;56.820;24.416;2023-02-15T06:29:44;2.80;99.90
20158;DHT22;10239;56.820;24.416;2023-02-15T06:32:12;3.80;99.90
20158;DHT22;10239;56.820;24.416;2023-02-15T06:34:40;4.80;99.90
20158;DHT22;10239;56.820;24.416;2023-02-15T06:37:07;5.70;99.90
20158;DHT22;10239;56.820;24.416;2023-02-15T06:39:38;6.30;99.90
20158;DHT22;10239;56.820;24.416;2023-02-15T06:42:05;6.80;99.90
20158;DHT22;10239;56.820;24.416;2023-02-15T06:44:33;7.40;99.90
20158;DHT22;10239;56.820;24.416;2023-02-15T06:47:00;7.60;99.90
20158;DHT22;10239;56.820;24.416;2023-02-15T06:49:28;8.30;99.90
20158;DHT22;10239;56.820;24.416;2023-02-15T06:51:55;8.80;99.90
20158;DHT22;10239;56.820;24.416;2023-02-15T06:54:23;9.50;99.90
20158;DHT22;10239;56.820;24.416;2023-02-15T06:56:51;9.70;99.90
20158;DHT22;10239;56.820;24.416;2023-02-15T06:59:18;10.50;99.90
20158;DHT22;10239;56.820;24.416;2023-02-15T07:01:46;10.80;99.90
20158;DHT22;10239;56.820;24.416;2023-02-15T07:04:14;10.80;99.90
20158;DHT22;10239;56.820;24.416;2023-02-15T07:06:42;10.60;99.90
20158;DHT22;10239;56.820;24.416;2023-02-15T07:09:10;10.80;99.90
20158;DHT22;10239;56.820;24.416;2023-02-15T07:11:38;11.50;99.90
20158;DHT22;10239;56.820;24.416;2023-02-15T07:14:24;12.10;99.90
20158;DHT22;10239;56.820;24.416;2023-02-15T07:16:54;13.00;99.90
20158;DHT22;10239;56.820;24.416;2023-02-15T07:19:22;13.50;99.90
20158;DHT22;10239;56.820;24.416;2023-02-15T07:21:49;14.30;99.90
20158;DHT22;10239;56.820;24.416;2023-02-15T07:24:17;13.90;99.90
20158;DHT22;10239;56.820;24.416;2023-02-15T07:26:44;12.70;99.90
20158;DHT22;10239;56.820;24.416;2023-02-15T07:29:12;11.70;99.90
20158;DHT22;10239;56.820;24.416;2023-02-15T07:31:39;10.70;99.90
20158;DHT22;10239;56.820;24.416;2023-02-15T07:34:07;9.70;99.90
20158;DHT22;10239;56.820;24.416;2023-02-15T07:36:35;9.10;99.90
20158;DHT22;10239;56.820;24.416;2023-02-15T07:39:03;8.50;99.90
20158;DHT22;10239;56.820;24.416;2023-02-15T07:41:30;8.00;99.90
20158;DHT22;10239;56.820;24.416;2023-02-15T07:43:58;7.50;99.90
20158;DHT22;10239;56.820;24.416;2023-02-15T07:46:25;7.20;99.90
20158;DHT22;10239;56.820;24.416;2023-02-15T07:48:53;7.10;99.90
20158;DHT22;10239;56.820;24.416;2023-02-15T07:51:20;6.80;99.90
20158;DHT22;10239;56.820;24.416;2023-02-15T07:53:48;6.60;99.90
20158;DHT22;10239;56.820;24.416;2023-02-15T07:56:15;6.50;99.90
20158;DHT22;10239;56.820;24.416;2023-02-15T07:58:43;6.30;99.90
20158;DHT22;10239;56.820;24.416;2023-02-15T08:01:31;6.20;99.90
20158;DHT22;10239;56.820;24.416;2023-02-15T08:03:59;6.00;99.90
20158;DHT22;10239;56.820;24.416;2023-02-15T08:06:30;5.80;99.90
20158;DHT22;10239;56.820;24.416;2023-02-15T08:08:58;5.70;99.90
20158;DHT22;10239;56.820;24.416;2023-02-15T08:11:27;5.60;99.90
20158;DHT22;10239;56.820;24.416;2023-02-15T08:16:44;5.00;99.90
20158;DHT22;10239;56.820;24.416;2023-02-15T08:19:23;4.80;99.90
20158;DHT22;10239;56.820;24.416;2023-02-15T08:24:26;4.50;99.90
20158;DHT22;10239;56.820;24.416;2023-02-15T08:26:55;4.40;99.90
20158;DHT22;10239;56.820;24.416;2023-02-15T08:29:25;4.40;99.90
20158;DHT22;10239;56.820;24.416;2023-02-15T08:31:56;4.30;99.90
20158;DHT22;10239;56.820;24.416;2023-02-15T08:34:35;4.40;99.90
20158;DHT22;10239;56.820;24.416;2023-02-15T08:37:03;4.30;99.90
20158;DHT22;10239;56.820;24.416;2023-02-15T08:39:31;4.40;99.90
20158;DHT22;10239;56.820;24.416;2023-02-15T08:41:58;4.50;99.90
20158;DHT22;10239;56.820;24.416;2023-02-15T08:44:25;4.60;99.90
20158;DHT22;10239;56.820;24.416;2023-02-15T08:46:53;4.70;99.90
20158;DHT22;10239;56.820;24.416;2023-02-15T08:49:22;4.60;99.90
20158;DHT22;10239;56.820;24.416;2023-02-15T08:51:50;4.60;99.90
20158;DHT22;10239;56.820;24.416;2023-02-15T08:54:20;4.70;99.90
20158;DHT22;10239;56.820;24.416;2023-02-15T08:56:48;4.80;99.90
20158;DHT22;10239;56.820;24.416;2023-02-15T08:59:18;4.70;99.90
20158;DHT22;10239;56.820;24.416;2023-02-15T09:01:46;4.70;99.90
20158;DHT22;10239;56.820;24.416;2023-02-15T09:04:15;4.70;99.90
20158;DHT22;10239;56.820;24.416;2023-02-15T09:06:44;4.60;99.90
20158;DHT22;10239;56.820;24.416;2023-02-15T09:09:15;4.50;99.90
20158;DHT22;10239;56.820;24.416;2023-02-15T09:11:45;4.60;99.90
20158;DHT22;10239;56.820;24.416;2023-02-15T09:14:20;4.60;99.90
20158;DHT22;10239;56.820;24.416;2023-02-15T09:16:48;4.60;99.90
20158;DHT22;10239;56.820;24.416;2023-02-15T09:19:21;4.60;99.90
20158;DHT22;10239;56.820;24.416;2023-02-15T09:21:49;4.60;99.90
20158;DHT22;10239;56.820;24.416;2023-02-15T09:24:18;4.60;99.90
20158;DHT22;10239;56.820;24.416;2023-02-15T09:26:47;4.50;99.90
20158;DHT22;10239;56.820;24.416;2023-02-15T09:29:16;4.60;99.90
20158;DHT22;10239;56.820;24.416;2023-02-15T09:31:47;4.60;99.90
20158;DHT22;10239;56.820;24.416;2023-02-15T09:34:18;4.70;99.90
20158;DHT22;10239;56.820;24.416;2023-02-15T09:36:46;4.70;99.90
20158;DHT22;10239;56.820;24.416;2023-02-15T09:39:20;4.60;99.90
20158;DHT22;10239;56.820;24.416;2023-02-15T09:56:09;4.60;99.90
20158;DHT22;10239;56.820;24.416;2023-02-15T10:01:54;4.60;99.90
20158;DHT22;10239;56.820;24.416;2023-02-15T10:13:55;4.50;99.90
20158;DHT22;10239;56.820;24.416;2023-02-15T10:16:42;4.40;99.90
20158;DHT22;10239;56.820;24.416;2023-02-15T10:19:19;4.40;99.90
20158;DHT22;10239;56.820;24.416;2023-02-15T10:24:39;4.20;99.90
20158;DHT22;10239;56.820;24.416;2023-02-15T10:27:21;4.20;99.90
20158;DHT22;10239;56.820;24.416;2023-02-15T10:33:02;4.30;99.90
20158;DHT22;10239;56.820;24.416;2023-02-15T10:38:51;4.20;99.90
20158;DHT22;10239;56.820;24.416;2023-02-15T10:55:52;4.10;99.90
20158;DHT22;10239;56.820;24.416;2023-02-15T11:01:45;4.30;99.90
20158;DHT22;10239;56.820;24.416;2023-02-15T11:06:54;4.40;99.90
20158;DHT22;10239;56.820;24.416;2023-02-15T11:09:29;4.30;99.90
20158;DHT22;10239;56.820;24.416;2023-02-15T11:12:00;4.30;99.90
20158;DHT22;10239;56.820;24.416;2023-02-15T11:14:38;4.40;99.90
20158;DHT22;10239;56.820;24.416;2023-02-15T11:17:19;4.30;99.90
20158;DHT22;10239;56.820;24.416;2023-02-15T11:22:28;4.20;99.90
20158;DHT22;10239;56.820;24.416;2023-02-15T11:24:58;4.10;99.90
20158;DHT22;10239;56.820;24.416;2023-02-15T11:27:31;4.00;99.90
20158;DHT22;10239;56.820;24.416;2023-02-15T11:30:09;4.00;99.90
20158;DHT22;10239;56.820;24.416;2023-02-15T11:32:43;4.10;99.90
20158;DHT22;10239;56.820;24.416;2023-02-15T11:37:44;4.10;99.90
20158;DHT22;10239;56.820;24.416;2023-02-15T11:43:06;4.00;99.90
20158;DHT22;10239;56.820;24.416;2023-02-15T11:45:41;3.90;99.90
20158;DHT22;10239;56.820;24.416;2023-02-15T11:48:11;3.90;99.90
20158;DHT22;10239;56.820;24.416;2023-02-15T11:50:40;3.90;99.90
20158;DHT22;10239;56.820;24.416;2023-02-15T11:53:20;4.00;99.90
20158;DHT22;10239;56.820;24.416;2023-02-15T11:55:55;4.00;99.90
20158;DHT22;10239;56.820;24.416;2023-02-15T11:58:59;3.90;99.90
20158;DHT22;10239;56.820;24.416;2023-02-15T12:01:35;3.90;99.90
20158;DHT22;10239;56.820;24.416;2023-02-15T12:04:20;3.90;99.90
20158;DHT22;10239;56.820;24.416;2023-02-15T12:07:40;3.80;99.90
20158;DHT22;10239;56.820;24.416;2023-02-15T12:10:00;3.80;99.90
20158;DHT22;10239;56.820;24.416;2023-02-15T12:12:33;3.70;99.90
20158;DHT22;10239;56.820;24.416;2023-02-15T12:15:05;3.70;99.90
20158;DHT22;10239;56.820;24.416;2023-02-15T12:20:29;3.70;99.90
20158;DHT22;10239;56.820;24.416;2023-02-15T12:23:11;3.70;99.90
20158;DHT22;10239;56.820;24.416;2023-02-15T12:25:50;3.70;99.90
20158;DHT22;10239;56.820;24.416;2023-02-15T12:31:03;3.80;99.90
20158;DHT22;10239;56.820;24.416;2023-02-15T12:33:39;3.80;99.90
20158;DHT22;10239;56.820;24.416;2023-02-15T12:36:25;3.90;99.90
20158;DHT22;10239;56.820;24.416;2023-02-15T12:42:02;4.00;99.90
20158;DHT22;10239;56.820;24.416;2023-02-15T12:44:35;4.10;99.90
20158;DHT22;10239;56.820;24.416;2023-02-15T12:49:45;4.00;99.90
20158;DHT22;10239;56.820;24.416;2023-02-15T12:52:30;3.80;99.90
20158;DHT22;10239;56.820;24.416;2023-02-15T12:55:18;3.70;99.90
20158;DHT22;10239;56.820;24.416;2023-02-15T12:57:46;3.70;99.90
20158;DHT22;10239;56.820;24.416;2023-02-15T13:02:53;3.70;99.90
20158;DHT22;10239;56.820;24.416;2023-02-15T13:05:39;3.70;99.90
20158;DHT22;10239;56.820;24.416;2023-02-15T13:08:20;3.80;99.90
20158;DHT22;10239;56.820;24.416;2023-02-15T13:11:00;3.80;99.90
20158;DHT22;10239;56.820;24.416;2023-02-15T13:13:32;3.70;99.90
20158;DHT22;10239;56.820;24.416;2023-02-15T13:16:09;3.70;99.90
20158;DHT22;10239;56.820;24.416;2023-02-15T13:18:43;3.70;99.90
20158;DHT22;10239;56.820;24.416;2023-02-15T13:21:15;3.80;99.90
20158;DHT22;10239;56.820;24.416;2023-02-15T13:23:47;3.90;99.90
20158;DHT22;10239;56.820;24.416;2023-02-15T13:26:19;4.00;99.90
20158;DHT22;10239;56.820;24.416;2023-02-15T13:28:56;4.00;99.90
20158;DHT22;10239;56.820;24.416;2023-02-15T13:31:27;3.90;99.90
20158;DHT22;10239;56.820;24.416;2023-02-15T13:34:17;3.90;99.90
20158;DHT22;10239;56.820;24.416;2023-02-15T13:36:52;4.00;99.90
20158;DHT22;10239;56.820;24.416;2023-02-15T13:39:40;3.90;99.90
20158;DHT22;10239;56.820;24.416;2023-02-15T13:42:30;4.00;99.90
20158;DHT22;10239;56.820;24.416;2023-02-15T13:56:33;4.10;99.90
20158;DHT22;10239;56.820;24.416;2023-02-15T14:01:57;3.80;99.90
20158;DHT22;10239;56.820;24.416;2023-02-15T14:07:29;3.40;99.90
20158;DHT22;10239;56.820;24.416;2023-02-15T14:18:56;2.70;99.90
20158;DHT22;10239;56.820;24.416;2023-02-15T14:24:23;2.50;99.90
20158;DHT22;10239;56.820;24.416;2023-02-15T14:30:24;2.60;99.90
20158;DHT22;10239;56.820;24.416;2023-02-15T14:33:10;2.40;99.90
20158;DHT22;10239;56.820;24.416;2023-02-15T14:35:44;2.30;99.90
20158;DHT22;10239;56.820;24.416;2023-02-15T14:57:32;2.10;99.90
20158;DHT22;10239;56.820;24.416;2023-02-15T15:05:14;2.20;99.90
20158;DHT22;10239;56.820;24.416;2023-02-15T15:07:45;2.50;99.90
20158;DHT22;10239;56.820;24.416;2023-02-15T15:18:10;2.30;99.90
20158;DHT22;10239;56.820;24.416;2023-02-15T15:20:51;2.30;99.90
20158;DHT22;10239;56.820;24.416;2023-02-15T15:31:14;2.70;99.90
20158;DHT22;10239;56.820;24.416;2023-02-15T15:36:54;2.80;99.90
20158;DHT22;10239;56.820;24.416;2023-02-15T15:39:47;2.80;99.90
20158;DHT22;10239;56.820;24.416;2023-02-15T15:45:38;2.90;99.90
20158;DHT22;10239;56.820;24.416;2023-02-15T15:48:32;2.60;99.90
20158;DHT22;10239;56.820;24.416;2023-02-15T15:51:10;2.40;99.90
20158;DHT22;10239;56.820;24.416;2023-02-15T15:53:42;2.20;99.90
20158;DHT22;10239;56.820;24.416;2023-02-15T15:56:16;2.10;99.90
20158;DHT22;10239;56.820;24.416;2023-02-15T15:58:49;2.10;99.90
20158;DHT22;10239;56.820;24.416;2023-02-15T16:01:26;2.10;99.90
20158;DHT22;10239;56.820;24.416;2023-02-15T16:03:56;2.00;99.90
20158;DHT22;10239;56.820;24.416;2023-02-15T16:06:42;2.20;99.90
20158;DHT22;10239;56.820;24.416;2023-02-15T16:11:43;1.90;99.90
20158;DHT22;10239;56.820;24.416;2023-02-15T16:14:13;2.00;99.90
20158;DHT22;10239;56.820;24.416;2023-02-15T16:16:48;2.00;99.90
20158;DHT22;10239;56.820;24.416;2023-02-15T16:19:21;2.10;99.90
20158;DHT22;10239;56.820;24.416;2023-02-15T16:21:49;1.90;99.90
20158;DHT22;10239;56.820;24.416;2023-02-15T16:29:47;1.90;99.90
20158;DHT22;10239;56.820;24.416;2023-02-15T16:35:01;2.10;99.90
20158;DHT22;10239;56.820;24.416;2023-02-15T16:37:34;1.90;99.90
20158;DHT22;10239;56.820;24.416;2023-02-15T16:40:01;1.90;99.90
20158;DHT22;10239;56.820;24.416;2023-02-15T16:42:29;1.70;99.90
20158;DHT22;10239;56.820;24.416;2023-02-15T16:45:12;1.70;99.90
20158;DHT22;10239;56.820;24.416;2023-02-15T16:47:44;1.70;99.90
20158;DHT22;10239;56.820;24.416;2023-02-15T16:50:24;1.70;99.90
20158;DHT22;10239;56.820;24.416;2023-02-15T16:52:53;1.80;99.90
20158;DHT22;10239;56.820;24.416;2023-02-15T16:55:23;2.00;99.90
20158;DHT22;10239;56.820;24.416;2023-02-15T16:57:56;2.10;99.90
20158;DHT22;10239;56.820;24.416;2023-02-15T17:00:31;1.80;99.90
20158;DHT22;10239;56.820;24.416;2023-02-15T17:03:02;1.70;99.90
20158;DHT22;10239;56.820;24.416;2023-02-15T17:05:47;1.70;99.90
20158;DHT22;10239;56.820;24.416;2023-02-15T17:08:16;1.70;99.90
20158;DHT22;10239;56.820;24.416;2023-02-15T17:13:27;1.90;99.90
20158;DHT22;10239;56.820;24.416;2023-02-15T17:18:31;2.00;99.90
20158;DHT22;10239;56.820;24.416;2023-02-15T17:21:08;2.00;99.90
20158;DHT22;10239;56.820;24.416;2023-02-15T17:23:47;2.20;99.90
20158;DHT22;10239;56.820;24.416;2023-02-15T17:26:21;2.10;99.90
20158;DHT22;10239;56.820;24.416;2023-02-15T17:28:55;1.90;99.90
20158;DHT22;10239;56.820;24.416;2023-02-15T17:31:26;1.90;99.90
20158;DHT22;10239;56.820;24.416;2023-02-15T17:33:59;1.90;99.90
20158;DHT22;10239;56.820;24.416;2023-02-15T17:36:29;1.90;99.90
20158;DHT22;10239;56.820;24.416;2023-02-15T17:41:25;1.80;99.90
20158;DHT22;10239;56.820;24.416;2023-02-15T17:43:53;1.80;99.90
20158;DHT22;10239;56.820;24.416;2023-02-15T17:46:21;1.90;99.90
20158;DHT22;10239;56.820;24.416;2023-02-15T17:48:53;2.00;99.90
20158;DHT22;10239;56.820;24.416;2023-02-15T17:51:22;1.80;99.90
20158;DHT22;10239;56.820;24.416;2023-02-15T17:53:50;1.80;99.90
20158;DHT22;10239;56.820;24.416;2023-02-15T17:56:37;1.90;99.90
20158;DHT22;10239;56.820;24.416;2023-02-15T17:59:05;1.80;99.90
20158;DHT22;10239;56.820;24.416;2023-02-15T18:01:48;1.90;99.90
20158;DHT22;10239;56.820;24.416;2023-02-15T18:04:36;2.00;99.90
20158;DHT22;10239;56.820;24.416;2023-02-15T18:07:22;1.90;99.90
20158;DHT22;10239;56.820;24.416;2023-02-15T18:10:16;1.80;99.90
20158;DHT22;10239;56.820;24.416;2023-02-15T18:13:02;1.90;99.90
20158;DHT22;10239;56.820;24.416;2023-02-15T18:15:30;1.80;99.90
20158;DHT22;10239;56.820;24.416;2023-02-15T18:17:57;1.80;99.90
20158;DHT22;10239;56.820;24.416;2023-02-15T18:20:32;1.70;99.90
20158;DHT22;10239;56.820;24.416;2023-02-15T18:23:00;1.80;99.90
20158;DHT22;10239;56.820;24.416;2023-02-15T18:25:30;1.90;99.90
20158;DHT22;10239;56.820;24.416;2023-02-15T18:27:57;1.80;99.90
20158;DHT22;10239;56.820;24.416;2023-02-15T18:30:25;1.70;99.90
20158;DHT22;10239;56.820;24.416;2023-02-15T18:32:55;1.90;99.90
20158;DHT22;10239;56.820;24.416;2023-02-15T18:35:27;2.00;99.90
20158;DHT22;10239;56.820;24.416;2023-02-15T18:37:55;2.00;99.90
20158;DHT22;10239;56.820;24.416;2023-02-15T18:40:25;1.90;99.90
20158;DHT22;10239;56.820;24.416;2023-02-15T18:42:53;2.00;99.90
20158;DHT22;10239;56.820;24.416;2023-02-15T18:45:29;2.00;99.90
20158;DHT22;10239;56.820;24.416;2023-02-15T18:48:01;2.00;99.90
20158;DHT22;10239;56.820;24.416;2023-02-15T18:50:32;1.90;99.90
20158;DHT22;10239;56.820;24.416;2023-02-15T18:53:05;1.90;99.90
20158;DHT22;10239;56.820;24.416;2023-02-15T18:55:32;1.90;99.90
20158;DHT22;10239;56.820;24.416;2023-02-15T18:58:01;1.90;99.90
20158;DHT22;10239;56.820;24.416;2023-02-15T19:00:31;1.90;99.90
20158;DHT22;10239;56.820;24.416;2023-02-15T19:03:00;1.80;99.90
20158;DHT22;10239;56.820;24.416;2023-02-15T19:05:31;2.00;99.90
20158;DHT22;10239;56.820;24.416;2023-02-15T19:08:00;1.90;99.90
20158;DHT22;10239;56.820;24.416;2023-02-15T19:10:30;2.00;99.90
20158;DHT22;10239;56.820;24.416;2023-02-15T19:12:59;1.90;99.90
20158;DHT22;10239;56.820;24.416;2023-02-15T19:15:28;2.10;99.90
20158;DHT22;10239;56.820;24.416;2023-02-15T19:17:56;2.30;99.90
20158;DHT22;10239;56.820;24.416;2023-02-15T19:20:27;2.30;99.90
20158;DHT22;10239;56.820;24.416;2023-02-15T19:22:56;2.10;99.90
20158;DHT22;10239;56.820;24.416;2023-02-15T19:25:27;2.30;99.90
20158;DHT22;10239;56.820;24.416;2023-02-15T19:27:56;2.40;99.90
20158;DHT22;10239;56.820;24.416;2023-02-15T19:30:29;2.50;99.90
20158;DHT22;10239;56.820;24.416;2023-02-15T19:32:58;2.20;99.90
20158;DHT22;10239;56.820;24.416;2023-02-15T19:35:29;2.10;99.90
20158;DHT22;10239;56.820;24.416;2023-02-15T19:37:59;1.90;99.90
20158;DHT22;10239;56.820;24.416;2023-02-15T19:40:33;2.00;99.90